Авиационная погода в Анапе

СКИДКИ НА СМАРТФОНЫ!

Регион: 
Погода METAR: 
URKA 091530Z 08008MPS CAVOK 32/11 Q1010 R04/010070 TEMPO 08015G23MPS RMK QFE753/1005
Время наблюдения
2022-08-09T15:30:00Z
Температура C
32.0
Точка росы
11.0
Направление ветра
80
Скорость ветра (узлы)
16
Метео видимость
6.21
Облачность
CAVOK
Нижняя граница облачности (футы)
Явления погоды
Условия полета
VFR
Аэропорт подробнее: 

Скидки на навигаторы!